Time;durP1;ratioP1;P1;durP2;ratioP2;P2;SDS_P1;SDS_P2;PMS_P1;PMS_P2;Temp;Humidity;BMP_temperature;BMP_pressure;BME280_temperature;BME280_humidity;BME280_pressure;Samples;Min_cycle;Max_cycle;Signal;HPM_P1;HPM_P2
2023/05/29 00:01:41;;;;;;;3.95;2.50;;;;;;;20.12;45.14;93461.75;4892510;29;20044;-92
2023/05/29 00:04:15;;;;;;;3.33;2.55;;;;;;;20.12;45.20;93464.50;4886732;29;20047;-91
2023/05/29 00:06:41;;;;;;;4.20;2.50;;;;;;;20.12;45.27;93456.28;4850778;29;20052;-91
2023/05/29 00:09:10;;;;;;;3.33;2.50;;;;;;;20.10;45.17;93459.53;4841752;29;20054;-91
2023/05/29 00:11:35;;;;;;;3.45;2.35;;;;;;;20.10;45.13;93454.06;4815604;29;20551;-90
2023/05/29 00:14:02;;;;;;;4.75;2.53;;;;;;;20.10;45.40;93454.06;4818408;29;20050;-91
2023/05/29 00:16:29;;;;;;;2.80;2.17;;;;;;;20.11;45.19;93447.28;4807222;29;20050;-91
2023/05/29 00:18:59;;;;;;;4.55;2.60;;;;;;;20.10;45.07;93454.06;4846322;29;20041;-91
2023/05/29 00:21:25;;;;;;;3.90;2.80;;;;;;;20.11;45.06;93452.03;4846514;29;20052;-92
2023/05/29 00:23:50;;;;;;;3.70;2.78;;;;;;;20.09;45.23;93452.56;4869868;29;20036;-91
2023/05/29 00:26:16;;;;;;;4.10;2.90;;;;;;;20.07;45.22;93449.59;4882536;29;20539;-91
2023/05/29 00:28:43;;;;;;;4.10;2.40;;;;;;;20.09;45.21;93435.34;4873941;29;20128;-92
2023/05/29 00:31:11;;;;;;;3.10;2.38;;;;;;;20.07;45.34;93443.38;4865406;29;20044;-91
2023/05/29 00:33:38;;;;;;;3.60;2.67;;;;;;;20.09;45.01;93433.34;4877756;29;20060;-91
2023/05/29 00:36:07;;;;;;;4.43;2.58;;;;;;;20.07;45.18;93438.63;4901165;29;20490;-91
2023/05/29 00:38:35;;;;;;;2.88;2.30;;;;;;;20.09;45.04;93435.34;4809836;29;20427;-92
2023/05/29 00:41:02;;;;;;;4.57;2.80;;;;;;;20.07;44.81;93427.66;4850570;29;20045;-92
2023/05/29 00:43:28;;;;;;;3.35;2.30;;;;;;;20.07;45.32;93433.13;4848838;29;20091;-92
2023/05/29 00:45:55;;;;;;;3.45;2.60;;;;;;;20.07;45.15;93435.13;4893855;29;20033;-92
2023/05/29 00:48:22;;;;;;;4.05;2.72;;;;;;;20.07;45.11;93435.13;4866354;29;20061;-91
2023/05/29 00:50:47;;;;;;;3.45;2.47;;;;;;;20.06;45.20;93425.41;4845234;29;20038;-92
2023/05/29 00:53:21;;;;;;;4.00;2.55;;;;;;;20.07;45.12;93427.66;4867146;29;20044;-91
2023/05/29 00:55:47;;;;;;;4.45;2.58;;;;;;;20.06;45.10;93434.38;4886487;29;20043;-91
2023/05/29 00:58:13;;;;;;;4.43;2.67;;;;;;;20.06;44.91;93425.41;4931418;29;20043;-92
2023/05/29 01:00:40;;;;;;;4.55;2.88;;;;;;;20.05;45.21;93432.16;4904313;29;20043;-91
2023/05/29 01:03:06;;;;;;;4.03;2.40;;;;;;;20.03;45.23;93429.94;4902027;29;20137;-92
2023/05/29 01:05:37;;;;;;;3.45;2.38;;;;;;;20.07;45.09;93424.16;4871527;29;20111;-91
2023/05/29 01:08:02;;;;;;;3.00;2.58;;;;;;;20.07;45.03;93426.91;4886678;29;20044;-91
2023/05/29 01:10:31;;;;;;;3.65;2.60;;;;;;;20.05;44.99;93421.19;4844152;29;20045;-91
2023/05/29 01:13:03;;;;;;;3.67;2.20;;;;;;;20.05;44.98;93430.16;4846636;29;20033;-92
2023/05/29 01:15:37;;;;;;;4.05;2.55;;;;;;;20.04;45.18;93428.69;4866153;29;20045;-90
2023/05/29 01:18:43;;;;;;;3.15;2.58;;;;;;;20.03;45.00;93424.44;4832936;29;20034;-91
2023/05/29 01:21:11;;;;;;;3.10;2.10;;;;;;;20.05;45.27;93423.94;4862536;29;20199;-91
2023/05/29 01:23:53;;;;;;;3.58;2.42;;;;;;;20.02;45.06;93424.97;4844031;29;20058;-91
2023/05/29 01:26:37;;;;;;;3.60;2.47;;;;;;;20.02;44.93;93427.72;4825209;29;20107;-90
2023/05/29 01:29:05;;;;;;;3.08;2.50;;;;;;;20.02;45.25;93430.47;4853906;29;20042;-92
2023/05/29 01:31:31;;;;;;;3.92;2.70;;;;;;;20.01;45.18;93418.75;4860053;29;20042;-91
2023/05/29 01:34:05;;;;;;;4.28;2.40;;;;;;;20.01;45.27;93428.97;4795864;29;20042;-91
2023/05/29 01:36:35;;;;;;;3.33;2.40;;;;;;;20.01;45.07;93424.22;4777977;29;20047;-91
2023/05/29 01:39:00;;;;;;;3.50;2.33;;;;;;;20.00;45.33;93424.75;4793317;29;20178;-91
2023/05/29 01:41:27;;;;;;;6.53;2.47;;;;;;;20.01;45.27;93437.22;4825260;29;20488;-91
2023/05/29 01:43:52;;;;;;;3.70;2.40;;;;;;;20.01;45.10;93423.50;4831923;29;20115;-91
2023/05/29 01:46:19;;;;;;;3.05;2.45;;;;;;;20.00;44.96;93422.75;4821146;29;20048;-92
2023/05/29 01:48:46;;;;;;;3.33;2.22;;;;;;;20.00;44.74;93425.50;4782223;29;20100;-92
2023/05/29 01:51:12;;;;;;;4.88;2.20;;;;;;;20.03;44.92;93415.47;4817844;29;20141;-91
2023/05/29 01:53:42;;;;;;;3.25;2.75;;;;;;;20.00;45.16;93411.78;4839174;29;20061;-92
2023/05/29 01:56:19;;;;;;;3.80;2.22;;;;;;;19.99;45.07;93413.03;4826991;29;20034;-91
2023/05/29 01:58:47;;;;;;;3.92;2.17;;;;;;;19.99;45.19;93415.78;4867070;29;20049;-91
2023/05/29 02:01:14;;;;;;;3.60;2.42;;;;;;;20.00;44.82;93417.25;4816602;29;20067;-92
2023/05/29 02:03:40;;;;;;;3.88;2.60;;;;;;;19.98;44.88;93414.28;4819214;29;20406;-90
2023/05/29 02:06:06;;;;;;;2.83;2.47;;;;;;;19.99;44.82;93421.25;4853283;29;20041;-91
2023/05/29 02:08:33;;;;;;;3.47;2.47;;;;;;;19.98;44.91;93417.03;4854775;29;20068;-92
2023/05/29 02:10:59;;;;;;;3.33;2.33;;;;;;;19.97;45.14;93407.31;4881599;29;20144;-91
2023/05/29 02:13:25;;;;;;;3.30;2.35;;;;;;;19.98;44.89;93411.53;4905385;29;20036;-91
2023/05/29 02:15:54;;;;;;;3.05;2.15;;;;;;;19.98;44.95;93408.81;4917510;29;20088;-91
2023/05/29 02:18:20;;;;;;;4.18;2.60;;;;;;;20.00;44.84;93402.81;4864269;29;20078;-92
2023/05/29 02:20:46;;;;;;;3.60;2.60;;;;;;;19.99;44.94;93398.56;4853650;29;20116;-91
2023/05/29 02:23:12;;;;;;;3.80;2.60;;;;;;;20.00;44.89;93402.81;4867483;29;20465;-91
2023/05/29 02:25:38;;;;;;;6.28;2.30;;;;;;;20.01;44.73;93401.53;4840568;29;20049;-91
2023/05/29 02:28:07;;;;;;;3.53;2.25;;;;;;;19.98;44.94;93403.31;4890315;29;20468;-92
2023/05/29 02:30:34;;;;;;;4.10;2.58;;;;;;;19.97;45.05;93396.34;4954887;28;20051;-91
2023/05/29 02:33:00;;;;;;;3.72;2.58;;;;;;;19.99;44.85;93398.56;4948781;28;20042;-91
2023/05/29 02:35:26;;;;;;;4.53;2.70;;;;;;;19.99;44.87;93404.06;4929622;28;20133;-91
2023/05/29 02:37:53;;;;;;;3.70;2.53;;;;;;;19.96;44.82;93394.13;4955800;28;20029;-92
2023/05/29 02:40:20;;;;;;;3.35;2.53;;;;;;;19.97;44.84;93398.34;4988450;28;20065;-91
2023/05/29 02:42:45;;;;;;;3.45;2.20;;;;;;;19.97;44.85;93396.34;4989687;28;20436;-91
2023/05/29 02:45:12;;;;;;;3.92;2.03;;;;;;;19.94;45.05;93394.66;4965377;28;20045;-92
2023/05/29 02:47:38;;;;;;;3.50;2.35;;;;;;;19.96;44.80;93392.13;4945450;28;20533;-93
2023/05/29 02:50:06;;;;;;;2.65;2.08;;;;;;;19.96;44.84;93399.59;4970418;28;20046;-91
2023/05/29 02:52:32;;;;;;;5.25;2.53;;;;;;;19.94;44.97;93400.13;4981148;28;20405;-92
2023/05/29 02:54:58;;;;;;;3.25;2.30;;;;;;;19.94;44.88;93397.38;4923363;28;20175;-91
2023/05/29 02:57:26;;;;;;;3.70;2.60;;;;;;;19.95;44.93;93398.88;4938866;28;20036;-91
2023/05/29 02:59:52;;;;;;;4.00;2.33;;;;;;;19.92;44.81;93405.41;4932915;29;20062;-92
2023/05/29 03:02:18;;;;;;;3.70;2.70;;;;;;;19.95;44.80;93396.13;4958740;28;20046;-91
2023/05/29 03:04:46;;;;;;;3.78;2.72;;;;;;;19.92;45.01;93396.44;4953127;28;20077;-91
2023/05/29 03:07:12;;;;;;;4.70;2.40;;;;;;;19.90;44.90;93394.22;4944108;28;20065;-91
2023/05/29 03:09:38;;;;;;;4.18;2.50;;;;;;;19.93;44.74;93400.66;4956953;28;20075;-93
2023/05/29 03:12:04;;;;;;;3.50;2.40;;;;;;;19.93;44.85;93393.16;4963847;28;20038;-91
2023/05/29 03:14:35;;;;;;;3.97;2.50;;;;;;;19.91;44.81;93392.97;4962174;28;20042;-91
2023/05/29 03:17:04;;;;;;;3.72;2.05;;;;;;;19.92;44.61;93386.19;4955613;28;20046;-91
2023/05/29 03:19:29;;;;;;;2.78;2.03;;;;;;;19.94;44.91;93385.66;4984674;28;20057;-91
2023/05/29 03:21:58;;;;;;;7.00;2.60;;;;;;;19.92;44.79;93394.41;4968331;28;20048;-92
2023/05/29 03:24:28;;;;;;;3.75;2.45;;;;;;;19.92;44.67;93393.72;4997554;28;20045;-91
2023/05/29 03:26:58;;;;;;;2.83;2.40;;;;;;;19.93;45.05;93393.16;4981961;28;20110;-91
2023/05/29 03:29:26;;;;;;;4.07;2.15;;;;;;;19.92;44.50;93396.44;4977578;28;20123;-91
2023/05/29 03:31:52;;;;;;;3.22;2.28;;;;;;;19.90;44.75;93398.97;4985862;28;20041;-92
2023/05/29 03:34:17;;;;;;;3.17;2.38;;;;;;;19.89;44.63;93392.75;4964590;28;20037;-90
2023/05/29 03:36:43;;;;;;;3.45;2.13;;;;;;;19.90;44.93;93399.72;4970602;28;20046;-91
2023/05/29 03:39:10;;;;;;;3.65;2.60;;;;;;;19.90;44.87;93391.47;4950840;28;20046;-91
2023/05/29 03:41:36;;;;;;;3.63;2.78;;;;;;;19.93;44.82;93395.16;4929305;28;20041;-91
2023/05/29 03:44:10;;;;;;;3.13;2.35;;;;;;;19.88;44.95;93394.00;4921136;28;20051;-92
2023/05/29 03:46:37;;;;;;;3.88;2.67;;;;;;;19.90;44.75;93404.47;4956167;28;20115;-92
2023/05/29 03:49:07;;;;;;;3.60;2.70;;;;;;;19.90;44.70;93396.22;4942650;28;20046;-91
2023/05/29 03:51:32;;;;;;;4.45;2.22;;;;;;;19.88;44.74;93388.50;4945460;28;20713;-91
2023/05/29 03:54:00;;;;;;;3.78;2.50;;;;;;;19.91;44.76;93392.97;4930579;28;20049;-92
2023/05/29 03:56:35;;;;;;;3.83;2.28;;;;;;;19.90;44.83;93396.22;4943028;28;20042;-90
2023/05/29 03:59:02;;;;;;;3.33;2.40;;;;;;;19.93;44.78;93395.91;4962949;28;20039;-91
2023/05/29 04:01:28;;;;;;;4.35;2.63;;;;;;;19.89;44.76;93398.22;4936284;28;20063;-91
2023/05/29 04:03:54;;;;;;;2.53;1.95;;;;;;;19.90;44.58;93407.94;4941231;28;20062;-91
2023/05/29 04:06:20;;;;;;;3.00;2.40;;;;;;;19.90;44.76;93409.94;4942930;28;20044;-92
2023/05/29 04:08:45;;;;;;;3.22;1.83;;;;;;;19.91;44.61;93395.72;4941303;29;20043;-91
2023/05/29 04:11:13;;;;;;;3.83;2.67;;;;;;;19.90;44.50;93407.19;4940606;29;20450;-91
2023/05/29 04:13:38;;;;;;;3.15;2.15;;;;;;;19.92;44.72;93407.41;4926324;29;20039;-92
2023/05/29 04:16:08;;;;;;;2.78;2.15;;;;;;;19.90;44.63;93416.16;4927130;28;20047;-91
2023/05/29 04:18:35;;;;;;;3.53;2.30;;;;;;;19.89;44.57;93411.94;4927129;29;20051;-92
2023/05/29 04:21:00;;;;;;;3.65;2.10;;;;;;;19.92;44.44;93410.88;4958677;28;20142;-91
2023/05/29 04:23:27;;;;;;;3.38;2.50;;;;;;;19.90;44.45;93410.69;4952240;28;20034;-92
2023/05/29 04:25:55;;;;;;;2.38;2.10;;;;;;;19.92;44.41;93419.13;4966638;28;20090;-92
2023/05/29 04:28:26;;;;;;;3.17;2.17;;;;;;;19.93;44.67;93420.59;4948356;28;20073;-92
2023/05/29 04:30:52;;;;;;;3.90;2.33;;;;;;;19.97;44.51;93434.00;5009744;28;20134;-91
2023/05/29 04:33:23;;;;;;;2.55;1.85;;;;;;;19.96;44.57;93424.31;4956135;28;20069;-91
2023/05/29 04:35:48;;;;;;;;;;;;;;;20.00;44.62;93427.50;4979214;28;20043;-91
2023/05/29 04:38:15;;;;;;;2.22;1.70;;;;;;;19.99;44.50;93434.97;4947706;28;19922;-91
2023/05/29 04:40:43;;;;;;;3.00;2.00;;;;;;;19.97;44.29;93443.00;4952106;28;20399;-93
2023/05/29 04:43:09;;;;;;;2.88;2.45;;;;;;;19.99;44.39;93443.22;4948653;28;20038;-90
2023/05/29 04:45:38;;;;;;;2.95;2.00;;;;;;;19.95;44.30;93445.50;4951790;28;20167;-91
2023/05/29 04:48:04;;;;;;;2.88;1.75;;;;;;;19.98;44.32;93441.00;4958518;28;20094;-92
2023/05/29 04:50:31;;;;;;;2.70;1.85;;;;;;;19.98;44.57;93449.22;4980541;28;20047;-91
2023/05/29 04:53:01;;;;;;;2.30;1.52;;;;;;;20.00;44.51;93452.19;4945576;28;20144;-92
2023/05/29 04:55:27;;;;;;;2.72;2.17;;;;;;;20.03;44.58;93449.16;4975381;28;20090;-91
2023/05/29 04:57:53;;;;;;;2.97;2.00;;;;;;;20.04;44.50;93458.13;4979606;28;20070;-92
2023/05/29 05:00:19;;;;;;;2.25;1.65;;;;;;;20.04;44.55;93456.13;4983784;28;20068;-91
2023/05/29 05:02:45;;;;;;;2.63;1.70;;;;;;;20.06;44.67;93453.59;5023937;23;20044;-91
2023/05/29 05:05:11;;;;;;;2.65;1.65;;;;;;;20.07;44.65;93454.34;5027038;28;20064;-92
2023/05/29 05:07:37;;;;;;;2.13;1.70;;;;;;;20.08;44.66;93459.31;5022707;28;20026;-91
2023/05/29 05:10:08;;;;;;;1.88;1.45;;;;;;;20.11;44.43;93446.56;5036917;23;20054;-91
2023/05/29 05:12:34;;;;;;;1.73;1.35;;;;;;;20.11;44.59;93452.03;5011004;28;20210;-92
2023/05/29 05:15:12;;;;;;;2.15;1.20;;;;;;;20.14;44.58;93451.72;4987955;28;20046;-92
2023/05/29 05:17:40;;;;;;;3.33;1.55;;;;;;;20.11;44.85;93455.53;4982474;28;20074;-93
2023/05/29 05:20:22;;;;;;;2.60;1.92;;;;;;;20.15;44.88;93450.47;4932895;28;20065;-90
2023/05/29 05:22:51;;;;;;;2.10;1.40;;;;;;;20.15;44.78;93453.19;4957604;29;20031;-92
2023/05/29 05:25:26;;;;;;;1.90;1.30;;;;;;;20.15;44.60;93458.69;4977374;28;20043;-91
2023/05/29 05:28:06;;;;;;;5.45;1.42;;;;;;;20.17;44.68;93456.16;4935040;29;20039;-92
2023/05/29 05:30:45;;;;;;;1.88;1.30;;;;;;;20.17;44.66;93472.63;4884175;29;20052;-92
2023/05/29 05:33:21;;;;;;;1.65;1.20;;;;;;;20.18;44.47;93465.16;4876035;29;20024;-91
2023/05/29 05:36:06;;;;;;;1.85;1.48;;;;;;;20.21;44.66;93455.88;4901053;29;20036;-91
2023/05/29 05:38:35;;;;;;;2.05;1.35;;;;;;;20.20;44.60;93463.38;4898758;29;20040;-91
2023/05/29 05:41:19;;;;;;;4.72;1.40;;;;;;;20.20;44.61;93462.63;4880530;29;20048;-90
2023/05/29 05:43:45;;;;;;;1.50;1.40;;;;;;;20.24;44.50;93462.34;4892064;29;20041;-91
2023/05/29 05:46:18;;;;;;;3.50;1.05;;;;;;;20.25;44.68;93461.06;4866147;29;20439;-90
2023/05/29 05:49:00;;;;;;;2.47;1.40;;;;;;;20.26;44.61;93459.81;4895404;29;20050;-92
2023/05/29 05:51:35;;;;;;;1.40;0.98;;;;;;;20.25;44.63;93458.31;4873600;29;20071;-92
2023/05/29 05:54:10;;;;;;;2.17;1.02;;;;;;;20.30;44.55;93461.00;4884842;29;20045;-91
2023/05/29 05:56:52;;;;;;;2.53;1.50;;;;;;;20.31;44.53;93467.97;4898636;29;20040;-91
2023/05/29 05:59:18;;;;;;;1.67;1.05;;;;;;;20.30;44.47;93461.00;4928519;29;20056;-93
2023/05/29 06:01:44;;;;;;;4.50;1.10;;;;;;;20.32;44.34;93471.47;4918266;29;20049;-92
2023/05/29 06:04:14;;;;;;;1.95;0.88;;;;;;;20.33;44.43;93470.19;5062641;23;20048;-90
2023/05/29 06:06:42;;;;;;;2.65;1.10;;;;;;;20.33;44.53;93476.44;5072876;28;20036;-92
2023/05/29 06:09:11;;;;;;;1.48;0.93;;;;;;;20.35;44.46;93481.41;5032224;28;20412;-91
2023/05/29 06:11:38;;;;;;;1.38;1.10;;;;;;;20.37;44.43;93476.13;5086082;28;20044;-91
2023/05/29 06:14:18;;;;;;;1.52;1.10;;;;;;;20.37;44.37;93462.41;5056080;28;20043;-92
2023/05/29 06:16:46;;;;;;;1.30;0.80;;;;;;;20.38;44.53;93472.88;5091701;28;20047;-93
2023/05/29 06:19:12;;;;;;;1.85;0.90;;;;;;;20.41;44.29;93479.31;5041253;28;20040;-92
2023/05/29 06:21:38;;;;;;;1.80;1.10;;;;;;;20.42;44.16;93478.78;5035305;28;20040;-92
2023/05/29 06:24:07;;;;;;;3.63;0.95;;;;;;;20.43;44.27;93485.03;5036247;28;20063;-91
2023/05/29 06:26:33;;;;;;;0.70;0.60;;;;;;;20.43;44.39;93480.28;5052938;28;20041;-92
2023/05/29 06:29:01;;;;;;;1.55;0.90;;;;;;;20.46;44.19;93478.50;5027388;28;20049;-91
2023/05/29 06:31:28;;;;;;;1.48;0.93;;;;;;;20.45;44.38;93477.00;5053330;22;20056;-91
2023/05/29 06:33:54;;;;;;;2.47;1.17;;;;;;;20.50;44.33;93487.19;5004979;28;20041;-91
2023/05/29 06:36:23;;;;;;;1.25;1.02;;;;;;;20.50;44.22;93479.69;4966717;28;20053;-92
2023/05/29 06:39:04;;;;;;;1.63;0.95;;;;;;;20.49;44.35;93477.47;5024140;28;20037;-91
2023/05/29 06:41:31;;;;;;;1.00;0.82;;;;;;;20.55;44.15;93489.09;5022644;28;20037;-90
2023/05/29 06:43:57;;;;;;;1.45;1.10;;;;;;;20.51;44.22;93492.16;5006866;28;20041;-91
2023/05/29 06:46:27;;;;;;;1.38;0.82;;;;;;;20.53;44.40;93495.13;5032444;28;20053;-90
2023/05/29 06:48:53;;;;;;;0.93;0.80;;;;;;;20.53;44.20;93491.63;4992421;28;20041;-91
2023/05/29 06:51:19;;;;;;;0.85;0.80;;;;;;;20.57;44.33;93505.06;4988027;28;20098;-92
2023/05/29 06:53:46;;;;;;;1.05;0.60;;;;;;;20.58;44.05;93492.78;4969079;28;20101;-92
2023/05/29 06:56:22;;;;;;;1.27;0.90;;;;;;;20.55;44.29;93502.09;4944029;28;20043;-91
2023/05/29 06:58:50;;;;;;;1.88;1.17;;;;;;;20.55;44.38;93493.84;4963801;28;20054;-91
2023/05/29 07:01:16;;;;;;;1.85;0.82;;;;;;;20.56;44.29;93493.34;4938960;28;20399;-91
2023/05/29 07:03:42;;;;;;;1.17;0.90;;;;;;;20.57;44.54;93497.53;4926039;29;20031;-91
2023/05/29 07:06:08;;;;;;;2.60;1.05;;;;;;;20.58;44.34;93504.50;4926486;28;20504;-91
2023/05/29 07:08:43;;;;;;;3.38;1.00;;;;;;;20.58;44.27;93501.03;4910113;29;20514;-91
2023/05/29 07:11:09;;;;;;;1.23;0.90;;;;;;;20.62;44.13;93507.69;4942384;28;20041;-91
2023/05/29 07:13:36;;;;;;;2.25;1.13;;;;;;;20.63;44.38;93502.94;4928508;29;20035;-92
2023/05/29 07:16:03;;;;;;;1.77;0.90;;;;;;;20.61;44.22;93508.97;4948712;28;20055;-92
2023/05/29 07:18:30;;;;;;;1.52;0.90;;;;;;;20.61;44.32;93506.22;4918167;29;20089;-90
2023/05/29 07:20:56;;;;;;;0.90;0.80;;;;;;;20.63;44.26;93505.69;4943430;29;20065;-92
2023/05/29 07:23:31;;;;;;;1.17;0.70;;;;;;;20.63;44.12;93517.44;4925688;28;20735;-91
2023/05/29 07:25:58;;;;;;;1.25;0.90;;;;;;;20.65;44.27;93520.41;4927835;29;20057;-91
2023/05/29 07:28:34;;;;;;;4.32;1.27;;;;;;;20.63;44.37;93520.19;4948867;28;20090;-92
2023/05/29 07:31:00;;;;;;;1.10;0.90;;;;;;;20.64;44.28;93516.16;4919409;29;20031;-91
2023/05/29 07:33:25;;;;;;;1.10;0.80;;;;;;;20.66;44.28;93521.88;4918158;28;20039;-91
2023/05/29 07:35:51;;;;;;;1.40;1.10;;;;;;;20.65;44.47;93530.63;4950279;28;20035;-91
2023/05/29 07:38:18;;;;;;;0.90;0.77;;;;;;;20.67;44.33;93519.88;4948917;28;20038;-91
2023/05/29 07:40:51;;;;;;;1.27;0.90;;;;;;;20.67;44.26;93528.84;4943556;29;20039;-91
2023/05/29 07:43:19;;;;;;;1.63;0.90;;;;;;;20.67;44.33;93528.13;4959517;28;20047;-91
2023/05/29 07:45:58;;;;;;;1.42;1.00;;;;;;;20.68;44.39;93521.34;4966258;28;20042;-92
2023/05/29 07:48:33;;;;;;;1.67;1.02;;;;;;;20.69;44.22;93529.06;4971640;28;20155;-91
2023/05/29 07:51:10;;;;;;;1.45;1.00;;;;;;;20.66;44.13;93534.88;4925571;29;20072;-91
2023/05/29 07:53:36;;;;;;;1.55;0.98;;;;;;;20.67;44.40;93534.34;4938349;29;20035;-91
2023/05/29 07:56:22;;;;;;;1.15;0.80;;;;;;;20.67;44.27;93528.13;4923408;29;20050;-92
2023/05/29 07:58:59;;;;;;;1.77;0.88;;;;;;;20.67;44.26;93528.84;4937298;29;20027;-92
2023/05/29 08:01:29;;;;;;;2.63;0.85;;;;;;;20.67;44.19;93528.13;4949100;28;20050;-91
2023/05/29 08:03:56;;;;;;;0.93;0.88;;;;;;;20.68;44.35;93526.84;4951931;29;20036;-92
2023/05/29 08:06:32;;;;;;;1.63;1.17;;;;;;;20.70;44.62;93529.81;4948095;28;20051;-92
2023/05/29 08:08:57;;;;;;;1.00;0.68;;;;;;;20.70;44.52;93525.06;4940089;29;20042;-92
2023/05/29 08:11:23;;;;;;;1.20;1.00;;;;;;;20.71;44.64;93536.81;4945240;28;20047;-93
2023/05/29 08:13:48;;;;;;;1.48;1.10;;;;;;;20.69;44.47;93522.84;4959255;28;20042;-92
2023/05/29 08:16:15;;;;;;;1.50;1.10;;;;;;;20.70;44.59;93530.56;4948136;28;20037;-90
2023/05/29 08:18:41;;;;;;;1.63;0.90;;;;;;;20.72;44.27;93538.28;4986167;28;20038;-91
2023/05/29 08:21:06;;;;;;;1.40;1.00;;;;;;;20.72;44.56;93539.03;4954203;28;20042;-90
2023/05/29 08:23:32;;;;;;;1.80;0.93;;;;;;;20.72;44.45;93535.53;4959156;28;20034;-91
2023/05/29 08:25:58;;;;;;;1.50;0.70;;;;;;;20.74;44.32;93533.00;4975407;28;20209;-92
2023/05/29 08:28:26;;;;;;;1.25;0.90;;;;;;;20.72;44.36;93530.78;4961724;28;20042;-91
2023/05/29 08:30:51;;;;;;;1.50;1.00;;;;;;;20.73;44.41;93540.50;4962237;28;20051;-93
2023/05/29 08:33:18;;;;;;;1.33;0.80;;;;;;;20.72;44.38;93528.03;4962633;28;20086;-91
2023/05/29 08:35:51;;;;;;;3.30;1.00;;;;;;;20.72;44.38;93538.28;5023944;28;20041;-92
2023/05/29 08:38:21;;;;;;;2.42;1.00;;;;;;;20.71;44.42;93523.81;5037843;28;20071;-92
2023/05/29 08:40:47;;;;;;;4.13;1.80;;;;;;;20.74;44.60;93530.25;5013922;28;20038;-91
2023/05/29 08:43:16;;;;;;;1.98;1.30;;;;;;;20.71;44.45;93537.53;4997463;28;20125;-91
2023/05/29 08:45:44;;;;;;;2.90;1.20;;;;;;;20.72;44.40;93538.28;4987982;28;20100;-91
2023/05/29 08:48:11;;;;;;;1.90;1.10;;;;;;;20.70;44.37;93530.56;4983765;28;20052;-92
2023/05/29 08:50:47;;;;;;;1.70;1.08;;;;;;;20.73;44.69;93526.03;4993259;28;20045;-90
2023/05/29 08:53:15;;;;;;;1.50;1.00;;;;;;;20.71;44.61;93528.56;4992404;28;20058;-91
2023/05/29 08:55:40;;;;;;;1.20;0.90;;;;;;;20.73;44.61;93543.25;4989267;28;20050;-91
2023/05/29 08:58:15;;;;;;;1.70;1.13;;;;;;;20.73;44.49;93545.25;4964739;28;20039;-91
2023/05/29 09:00:51;;;;;;;2.35;0.98;;;;;;;20.71;44.62;93540.28;4972319;28;20042;-92
2023/05/29 09:03:26;;;;;;;1.45;1.00;;;;;;;20.75;44.62;93545.47;4997762;28;20019;-93
2023/05/29 09:05:53;;;;;;;1.10;1.00;;;;;;;20.73;44.38;93532.25;4971883;28;20074;-93
2023/05/29 09:08:20;;;;;;;1.55;1.00;;;;;;;20.73;44.53;93528.78;4937073;28;20432;-93
2023/05/29 09:10:46;;;;;;;1.40;1.13;;;;;;;20.73;44.55;93546.00;4974331;28;20047;-92
2023/05/29 09:13:13;;;;;;;3.10;1.15;;;;;;;20.73;44.69;93531.53;4984572;28;20042;-93
2023/05/29 09:15:42;;;;;;;1.38;0.90;;;;;;;20.74;44.57;93525.50;4993070;28;20038;-93
2023/05/29 09:18:08;;;;;;;2.58;1.20;;;;;;;20.75;44.38;93535.25;4970941;28;20080;-94
2023/05/29 09:20:34;;;;;;;1.63;0.70;;;;;;;20.75;44.29;93534.50;4949745;28;20117;-93
2023/05/29 09:23:06;;;;;;;2.20;1.10;;;;;;;20.75;44.51;93524.25;4964262;28;20072;-93
2023/05/29 09:25:53;;;;;;;1.70;0.95;;;;;;;20.76;44.55;93528.47;4940476;28;20096;-92
2023/05/29 09:28:18;;;;;;;1.30;1.00;;;;;;;20.76;44.67;93533.97;4925112;28;20107;-92
2023/05/29 09:30:45;;;;;;;0.75;0.60;;;;;;;20.78;44.55;93525.94;4973223;28;20045;-93
2023/05/29 09:33:12;;;;;;;1.30;1.00;;;;;;;20.78;44.65;93545.19;4959465;28;20057;-93
2023/05/29 09:35:40;;;;;;;2.35;1.35;;;;;;;20.78;44.44;93531.44;4976874;28;20047;-93
2023/05/29 09:38:08;;;;;;;;;;;;;;;20.77;44.47;93527.22;4967630;28;20059;-93
2023/05/29 09:40:39;;;;;;;1.02;0.90;;;;;;;20.76;44.46;93530.47;4945624;28;19918;-93
2023/05/29 09:43:11;;;;;;;2.63;1.08;;;;;;;20.76;44.63;93528.47;4933133;28;20055;-92
2023/05/29 09:45:41;;;;;;;1.60;1.40;;;;;;;20.76;44.59;93527.72;4976076;28;20089;-93
2023/05/29 09:48:07;;;;;;;0.98;0.75;;;;;;;20.75;44.60;93521.50;4960518;28;20034;-94
2023/05/29 09:50:33;;;;;;;1.67;1.13;;;;;;;20.75;44.53;93524.25;4979851;28;20038;-93
2023/05/29 09:52:59;;;;;;;2.47;0.93;;;;;;;20.75;44.49;93527.00;4960452;28;20391;-93
2023/05/29 09:55:26;;;;;;;1.33;1.10;;;;;;;20.77;44.55;93529.22;4962979;28;20038;-94
2023/05/29 09:57:54;;;;;;;2.17;1.05;;;;;;;20.81;44.69;93533.13;4971438;28;20074;-93
2023/05/29 10:00:21;;;;;;;1.50;1.30;;;;;;;20.88;44.41;93534.53;4958719;28;20043;-93
2023/05/29 10:02:48;;;;;;;1.50;1.02;;;;;;;20.85;44.64;93541.06;4985619;28;20038;-92
2023/05/29 10:05:17;;;;;;;1.60;1.17;;;;;;;20.80;44.28;93536.38;4979128;28;20031;-93
2023/05/29 10:07:52;;;;;;;1.92;1.15;;;;;;;20.80;44.62;93531.63;4976975;28;20078;-93
2023/05/29 10:10:18;;;;;;;3.03;1.27;;;;;;;20.83;44.59;93538.09;4999633;28;20488;-94
2023/05/29 10:12:48;;;;;;;0.98;0.60;;;;;;;20.78;44.74;93533.44;4999791;28;20069;-92
2023/05/29 10:15:15;;;;;;;1.63;1.23;;;;;;;20.83;44.97;93527.84;4991342;28;20068;-93
2023/05/29 10:17:51;;;;;;;1.30;0.90;;;;;;;20.79;44.72;93532.91;5000246;28;20048;-93
2023/05/29 10:20:16;;;;;;;1.48;0.85;;;;;;;20.78;44.77;93536.19;5017009;28;20033;-94
2023/05/29 10:22:46;;;;;;;3.72;1.23;;;;;;;20.79;44.73;93535.66;5004013;28;20046;-92
2023/05/29 10:25:13;;;;;;;1.83;1.23;;;;;;;20.81;44.70;93535.13;4984157;28;20385;-93
2023/05/29 10:27:39;;;;;;;1.13;0.82;;;;;;;20.82;44.53;93528.38;4984227;28;20053;-93
2023/05/29 10:30:12;;;;;;;2.10;0.93;;;;;;;20.81;44.68;93529.63;4999769;28;20033;-92
2023/05/29 10:32:43;;;;;;;1.48;0.80;;;;;;;20.82;44.71;93520.13;4990111;28;20050;-93
2023/05/29 10:35:16;;;;;;;3.72;0.70;;;;;;;20.79;44.63;93530.16;4980291;28;20076;-93
2023/05/29 10:38:10;;;;;;;2.53;0.90;;;;;;;20.80;44.72;93530.91;4967424;28;20038;-92
2023/05/29 10:40:35;;;;;;;0.82;0.80;;;;;;;20.82;45.00;93523.63;4980231;28;20092;-93
2023/05/29 10:43:01;;;;;;;0.98;0.88;;;;;;;20.82;45.02;93520.88;4966816;28;20045;-93
2023/05/29 10:45:32;;;;;;;2.03;1.15;;;;;;;20.80;44.82;93531.63;4963440;28;20071;-93
2023/05/29 10:48:10;;;;;;;1.33;0.70;;;;;;;20.82;45.08;93529.13;5016826;28;20038;-92
2023/05/29 10:50:46;;;;;;;1.70;1.10;;;;;;;20.84;44.88;93515.59;4995491;28;20387;-93
2023/05/29 10:53:16;;;;;;;1.80;1.00;;;;;;;20.84;44.83;93521.09;4976523;28;20067;-92
2023/05/29 10:55:41;;;;;;;1.67;1.42;;;;;;;20.84;45.06;93525.84;4989299;28;20042;-92
2023/05/29 10:58:19;;;;;;;1.13;0.80;;;;;;;20.84;44.84;93515.59;4968639;28;20123;-92
2023/05/29 11:00:48;;;;;;;1.17;0.88;;;;;;;20.81;45.12;93522.13;4980834;28;20098;-92
2023/05/29 11:03:21;;;;;;;2.25;0.70;;;;;;;20.83;44.93;93525.09;4967287;28;20519;-93
2023/05/29 11:06:10;;;;;;;1.45;1.00;;;;;;;20.81;44.96;93518.66;4979809;28;20058;-92
2023/05/29 11:08:45;;;;;;;0.88;0.80;;;;;;;20.83;44.97;93522.34;4981064;28;20037;-92
2023/05/29 11:11:14;;;;;;;2.03;0.70;;;;;;;20.82;44.59;93514.63;4980093;28;20038;-92
2023/05/29 11:13:44;;;;;;;1.42;1.17;;;;;;;20.83;45.08;93514.09;4963951;28;20038;-92
2023/05/29 11:16:10;;;;;;;1.17;0.90;;;;;;;20.83;44.82;93518.88;4963766;28;20123;-93
2023/05/29 11:18:48;;;;;;;2.28;1.20;;;;;;;20.83;44.97;93518.88;5013506;28;20053;-93
2023/05/29 11:21:44;;;;;;;1.52;1.00;;;;;;;20.83;44.99;93516.13;4963518;28;20139;-92
2023/05/29 11:24:12;;;;;;;1.15;0.77;;;;;;;20.82;44.90;93517.38;4994151;28;20183;-92
2023/05/29 11:26:38;;;;;;;1.75;1.00;;;;;;;20.86;45.25;93515.06;4980430;28;20045;-93
2023/05/29 11:29:10;;;;;;;2.03;0.70;;;;;;;20.85;45.28;93510.84;4962170;28;20123;-92
2023/05/29 11:31:36;;;;;;;1.15;1.05;;;;;;;20.86;45.33;93517.81;4969698;28;20069;-92
2023/05/29 11:34:04;;;;;;;1.20;0.93;;;;;;;20.85;44.94;93517.06;4962810;28;20096;-93
2023/05/29 11:36:31;;;;;;;1.58;0.77;;;;;;;20.82;45.13;93512.63;4963719;28;20503;-91
2023/05/29 11:38:56;;;;;;;2.20;0.95;;;;;;;20.83;44.92;93521.59;4969081;28;20038;-92
2023/05/29 11:41:22;;;;;;;1.05;0.75;;;;;;;20.84;45.08;93521.09;4962266;28;20042;-93
2023/05/29 11:44:05;;;;;;;1.17;0.90;;;;;;;20.87;45.24;93525.53;4981343;28;20041;-92